createdAt,value
2023-04-19T00:01:44.109Z,100669.37
2023-04-19T00:04:11.361Z,100658.96
2023-04-19T00:06:40.504Z,100656.55
2023-04-19T00:09:08.484Z,100650.77
2023-04-19T00:11:35.271Z,100649.77
2023-04-19T00:14:02.674Z,100648.19
2023-04-19T00:16:29.559Z,100649.05
2023-04-19T00:18:56.355Z,100644.66
2023-04-19T00:21:23.250Z,100645.46
2023-04-19T00:23:50.146Z,100647.57
2023-04-19T00:26:16.934Z,100652.92
2023-04-19T00:28:46.183Z,100656.40
2023-04-19T00:31:13.042Z,100653.08
2023-04-19T00:33:42.368Z,100647.44
2023-04-19T00:36:10.498Z,100642.83
2023-04-19T00:38:37.310Z,100638.72
2023-04-19T00:41:04.176Z,100635.61
2023-04-19T00:43:31.350Z,100631.45
2023-04-19T00:45:58.207Z,100632.73
2023-04-19T00:48:24.996Z,100631.61
2023-04-19T00:50:51.890Z,100633.60
2023-04-19T00:53:18.816Z,100624.50
2023-04-19T00:55:46.593Z,100620.84
2023-04-19T00:58:13.531Z,100618.71
2023-04-19T01:00:43.822Z,100616.42
2023-04-19T01:03:10.851Z,100617.27
2023-04-19T01:05:38.075Z,100614.49
2023-04-19T01:08:05.850Z,100614.06
2023-04-19T01:10:32.914Z,100611.81
2023-04-19T01:12:59.867Z,100610.70
2023-04-19T01:15:26.686Z,100611.15
2023-04-19T01:17:55.982Z,100605.04
2023-04-19T01:20:23.140Z,100600.94
2023-04-19T01:22:51.489Z,100595.86
2023-04-19T01:25:18.377Z,100588.39
2023-04-19T01:27:45.388Z,100588.54
2023-04-19T01:30:12.562Z,100585.53
2023-04-19T01:32:40.925Z,100582.97
2023-04-19T01:35:10.604Z,100583.45
2023-04-19T01:37:37.526Z,100580.38
2023-04-19T01:40:06.865Z,100584.73
2023-04-19T01:42:34.972Z,100585.80
2023-04-19T01:45:01.929Z,100584.25
2023-04-19T01:47:29.430Z,100587.21
2023-04-19T01:49:56.433Z,100592.79
2023-04-19T01:52:23.170Z,100596.04
2023-04-19T01:54:52.380Z,100595.59
2023-04-19T01:57:20.409Z,100593.47
2023-04-19T01:59:47.629Z,100587.56
2023-04-19T02:02:14.501Z,100584.19
2023-04-19T02:04:41.355Z,100584.23
2023-04-19T02:07:08.201Z,100579.11
2023-04-19T02:09:36.559Z,100572.91
2023-04-19T02:12:04.655Z,100566.38
2023-04-19T02:14:32.215Z,100566.50
2023-04-19T02:16:59.316Z,100567.62
2023-04-19T02:19:26.218Z,100570.50
2023-04-19T02:21:57.088Z,100572.14
2023-04-19T02:24:24.465Z,100575.75
2023-04-19T02:26:53.072Z,100579.01
2023-04-19T02:29:20.498Z,100582.08
2023-04-19T02:31:47.429Z,100586.23
2023-04-19T02:34:14.626Z,100585.37
2023-04-19T02:36:41.672Z,100587.88
2023-04-19T02:39:08.405Z,100588.29
2023-04-19T02:41:38.688Z,100597.33
2023-04-19T02:44:05.808Z,100599.90
2023-04-19T02:46:34.773Z,100602.20
2023-04-19T02:49:02.018Z,100602.10
2023-04-19T02:51:29.038Z,100605.00
2023-04-19T02:53:55.862Z,100607.22
2023-04-19T02:56:23.109Z,100597.79
2023-04-19T02:58:50.069Z,100598.60
2023-04-19T03:01:17.002Z,100594.15
2023-04-19T03:03:44.464Z,100590.17
2023-04-19T03:06:11.972Z,100587.96
2023-04-19T03:08:39.265Z,100587.16
2023-04-19T03:11:06.116Z,100584.11
2023-04-19T03:13:32.976Z,100583.13
2023-04-19T03:15:59.920Z,100587.55
2023-04-19T03:18:27.313Z,100593.15
2023-04-19T03:20:55.158Z,100593.30
2023-04-19T03:23:25.129Z,100596.18
2023-04-19T03:25:52.045Z,100596.23
2023-04-19T03:28:32.383Z,100593.76
2023-04-19T03:31:32.325Z,100596.55
2023-04-19T03:33:59.336Z,100590.45
2023-04-19T03:36:30.592Z,100592.55
2023-04-19T03:38:59.267Z,100596.54
2023-04-19T03:41:27.032Z,100590.08
2023-04-19T03:44:14.280Z,100589.86
2023-04-19T03:46:45.878Z,100593.88
2023-04-19T03:49:13.512Z,100593.02
2023-04-19T03:51:41.965Z,100587.17
2023-04-19T03:54:08.849Z,100591.61
2023-04-19T03:56:35.838Z,100593.50
2023-04-19T03:59:02.802Z,100593.49
2023-04-19T04:01:30.342Z,100590.25
2023-04-19T04:03:57.549Z,100588.32
2023-04-19T04:06:26.328Z,100589.34
2023-04-19T04:08:53.211Z,100586.61
2023-04-19T04:11:21.197Z,100583.71
2023-04-19T04:13:50.201Z,100574.98
2023-04-19T04:16:20.588Z,100575.34
2023-04-19T04:18:48.019Z,100568.39
2023-04-19T04:21:15.050Z,100562.46
2023-04-19T04:23:45.021Z,100561.86
2023-04-19T04:26:20.191Z,100554.27
2023-04-19T04:28:58.764Z,100550.50
2023-04-19T04:31:25.700Z,100547.73
2023-04-19T04:33:54.859Z,100556.90
2023-04-19T04:36:21.921Z,100563.64
2023-04-19T04:38:49.271Z,100562.73
2023-04-19T04:41:16.238Z,100560.09
2023-04-19T04:43:43.058Z,100558.01
2023-04-19T04:46:10.868Z,100551.52
2023-04-19T04:48:39.259Z,100553.57
2023-04-19T04:51:06.275Z,100549.67
2023-04-19T04:53:34.413Z,100537.31
2023-04-19T04:56:03.462Z,100537.06
2023-04-19T04:58:31.112Z,100547.98
2023-04-19T05:01:04.080Z,100553.00
2023-04-19T05:03:33.336Z,100544.22
2023-04-19T05:06:02.430Z,100544.60
2023-04-19T05:08:31.281Z,100543.00
2023-04-19T05:11:09.477Z,100548.67
2023-04-19T05:13:37.033Z,100554.55
2023-04-19T05:16:04.447Z,100552.27
2023-04-19T05:18:32.156Z,100555.49
2023-04-19T05:20:59.931Z,100556.85
2023-04-19T05:23:30.238Z,100553.08
2023-04-19T05:28:53.573Z,100546.27
2023-04-19T05:31:45.107Z,100544.22
2023-04-19T05:34:33.323Z,100530.64
2023-04-19T05:37:00.618Z,100528.21
2023-04-19T05:39:27.584Z,100525.29
2023-04-19T05:41:54.851Z,100519.89
2023-04-19T05:44:22.093Z,100522.31
2023-04-19T05:46:49.043Z,100526.11
2023-04-19T05:49:20.907Z,100533.84
2023-04-19T05:52:02.910Z,100531.91
2023-04-19T05:54:36.053Z,100534.41
2023-04-19T05:57:03.920Z,100537.05
2023-04-19T05:59:31.885Z,100535.15
2023-04-19T06:02:00.884Z,100529.14
2023-04-19T06:04:28.166Z,100539.47
2023-04-19T06:06:55.735Z,100546.23
2023-04-19T06:09:22.585Z,100543.43
2023-04-19T06:11:51.532Z,100546.22
2023-04-19T06:14:19.742Z,100548.59
2023-04-19T06:16:46.893Z,100545.40
2023-04-19T06:19:14.052Z,100547.33
2023-04-19T06:21:40.917Z,100544.40
2023-04-19T06:24:07.983Z,100542.86
2023-04-19T06:26:34.887Z,100545.54
2023-04-19T06:29:01.908Z,100548.64
2023-04-19T06:31:29.463Z,100548.32
2023-04-19T06:33:56.403Z,100553.25
2023-04-19T06:36:23.593Z,100556.21
2023-04-19T06:38:50.651Z,100556.39
2023-04-19T06:41:17.637Z,100552.95
2023-04-19T06:43:44.978Z,100549.10
2023-04-19T06:46:14.036Z,100548.69
2023-04-19T06:48:41.391Z,100554.48
2023-04-19T06:51:08.959Z,100556.69
2023-04-19T06:53:36.624Z,100563.25
2023-04-19T06:56:04.286Z,100568.57
2023-04-19T06:58:33.286Z,100576.57
2023-04-19T07:01:03.783Z,100579.69
2023-04-19T07:03:30.832Z,100585.02
2023-04-19T07:05:58.748Z,100585.71
2023-04-19T07:08:34.978Z,100597.73
2023-04-19T07:11:09.920Z,100600.48
2023-04-19T07:13:38.015Z,100592.02
2023-04-19T07:16:05.883Z,100580.17
2023-04-19T07:18:33.374Z,100582.11
2023-04-19T07:21:00.360Z,100586.34
2023-04-19T07:23:27.135Z,100593.93
2023-04-19T07:25:54.180Z,100588.73
2023-04-19T07:28:21.113Z,100580.91
2023-04-19T07:30:49.677Z,100576.27
2023-04-19T07:33:17.335Z,100578.76
2023-04-19T07:35:44.142Z,100572.79
2023-04-19T07:38:10.965Z,100574.44
2023-04-19T07:40:38.064Z,100574.21
2023-04-19T07:43:05.050Z,100570.25
2023-04-19T07:45:33.226Z,100574.20
2023-04-19T07:48:02.434Z,100571.34
2023-04-19T07:50:31.420Z,100577.35
2023-04-19T07:52:58.363Z,100575.54
2023-04-19T07:55:25.405Z,100573.27
2023-04-19T07:57:52.276Z,100567.56
2023-04-19T08:00:21.291Z,100567.92
2023-04-19T08:02:48.561Z,100557.43
2023-04-19T08:05:19.703Z,100550.84
2023-04-19T08:07:46.723Z,100548.11
2023-04-19T08:10:14.185Z,100547.48
2023-04-19T08:12:47.704Z,100546.17
2023-04-19T08:17:57.471Z,100539.15
2023-04-19T08:20:24.799Z,100537.80
2023-04-19T08:22:53.914Z,100536.81
2023-04-19T08:25:23.297Z,100533.73
2023-04-19T08:27:50.273Z,100539.73
2023-04-19T08:30:17.386Z,100534.92
2023-04-19T08:32:44.324Z,100529.70
2023-04-19T08:35:11.351Z,100525.38
2023-04-19T08:37:38.383Z,100509.89
2023-04-19T08:40:06.195Z,100525.14
2023-04-19T08:42:36.826Z,100523.49
2023-04-19T08:47:42.145Z,100515.69
2023-04-19T08:50:31.166Z,100518.79
2023-04-19T08:53:16.084Z,100512.55
2023-04-19T08:58:30.684Z,100510.94
2023-04-19T09:01:08.350Z,100505.79
2023-04-19T09:04:02.657Z,100510.46
2023-04-19T09:06:38.603Z,100507.90
2023-04-19T09:11:52.988Z,100507.27
2023-04-19T09:14:20.736Z,100509.13
2023-04-19T09:16:47.973Z,100506.42
2023-04-19T09:19:24.143Z,100500.23
2023-04-19T09:21:55.189Z,100500.33
2023-04-19T09:25:13.641Z,100498.66
2023-04-19T09:27:28.502Z,100496.20
2023-04-19T09:29:56.566Z,100502.38
2023-04-19T09:32:24.033Z,100493.69
2023-04-19T09:34:52.726Z,100492.35
2023-04-19T09:37:33.025Z,100490.50
2023-04-19T09:40:23.622Z,100489.77
2023-04-19T09:45:29.829Z,100491.77
2023-04-19T09:48:02.939Z,100483.23
2023-04-19T09:50:32.752Z,100487.19
2023-04-19T09:53:00.952Z,100477.39
2023-04-19T09:55:29.169Z,100479.73
2023-04-19T09:58:01.452Z,100488.52
2023-04-19T10:00:33.528Z,100480.73
2023-04-19T10:03:06.639Z,100485.81
2023-04-19T10:05:33.758Z,100489.98
2023-04-19T10:08:01.694Z,100488.21
2023-04-19T10:15:47.255Z,100486.98
2023-04-19T10:18:17.954Z,100485.78
2023-04-19T10:21:03.888Z,100477.96
2023-04-19T10:23:31.411Z,100481.51
2023-04-19T10:25:59.111Z,100486.91
2023-04-19T10:28:30.281Z,100488.72
2023-04-19T10:31:02.451Z,100493.36
2023-04-19T10:33:36.792Z,100494.90
2023-04-19T10:36:08.662Z,100499.73
2023-04-19T10:38:46.682Z,100497.91
2023-04-19T10:41:17.482Z,100501.36
2023-04-19T10:43:59.382Z,100494.48
2023-04-19T10:49:15.671Z,100500.38
2023-04-19T10:51:49.959Z,100502.03
2023-04-19T10:54:37.884Z,100501.87
2023-04-19T10:57:14.964Z,100504.40
2023-04-19T11:00:25.604Z,100511.05
2023-04-19T11:02:53.570Z,100511.16
2023-04-19T11:05:21.061Z,100509.25
2023-04-19T11:07:48.390Z,100509.83
2023-04-19T11:10:28.081Z,100506.48
2023-04-19T11:12:55.446Z,100510.80
2023-04-19T11:15:23.681Z,100511.59
2023-04-19T11:18:08.767Z,100510.95
2023-04-19T11:20:42.616Z,100510.56
2023-04-19T11:23:19.437Z,100516.11
2023-04-19T11:25:48.006Z,100512.61
2023-04-19T11:28:17.016Z,100519.55
2023-04-19T11:30:43.833Z,100517.04
2023-04-19T11:33:12.216Z,100518.10
2023-04-19T11:35:39.280Z,100515.97
2023-04-19T11:38:06.242Z,100514.10
2023-04-19T11:40:33.803Z,100518.59
2023-04-19T11:43:03.155Z,100523.14
2023-04-19T11:45:39.103Z,100519.45
2023-04-19T11:48:17.736Z,100521.77
2023-04-19T11:50:45.550Z,100515.30
2023-04-19T11:53:33.333Z,100514.29
2023-04-19T11:56:05.165Z,100518.06
2023-04-19T11:58:35.593Z,100517.01
2023-04-19T12:01:13.679Z,100513.14
2023-04-19T12:03:45.145Z,100521.09
2023-04-19T12:06:15.710Z,100513.36
2023-04-19T12:08:47.512Z,100512.82
2023-04-19T12:11:15.453Z,100509.38
2023-04-19T12:13:44.443Z,100508.91
2023-04-19T12:16:11.653Z,100512.94
2023-04-19T12:18:48.237Z,100511.05
2023-04-19T12:21:28.850Z,100511.27
2023-04-19T12:23:59.655Z,100509.73
2023-04-19T12:26:28.753Z,100508.58
2023-04-19T12:28:56.017Z,100505.25
2023-04-19T12:31:23.481Z,100511.13
2023-04-19T12:33:50.710Z,100510.67
2023-04-19T12:36:17.926Z,100505.80
2023-04-19T12:38:46.579Z,100501.97
2023-04-19T12:41:13.489Z,100500.44
2023-04-19T12:43:40.627Z,100496.05
2023-04-19T12:46:07.676Z,100500.95
2023-04-19T12:48:35.019Z,100501.66
2023-04-19T12:51:04.655Z,100497.55
2023-04-19T12:53:31.792Z,100499.13
2023-04-19T12:55:58.625Z,100504.71
2023-04-19T12:58:27.550Z,100500.25
2023-04-19T13:00:54.761Z,100506.00
2023-04-19T13:03:21.736Z,100502.93
2023-04-19T13:05:48.880Z,100503.65
2023-04-19T13:08:16.586Z,100510.15
2023-04-19T13:10:43.886Z,100505.60
2023-04-19T13:13:10.745Z,100505.86
2023-04-19T13:15:37.800Z,100500.16
2023-04-19T13:18:04.789Z,100499.16
2023-04-19T13:20:35.328Z,100498.22
2023-04-19T13:23:02.432Z,100500.86
2023-04-19T13:25:29.314Z,100500.27
2023-04-19T13:27:56.150Z,100501.00
2023-04-19T13:30:23.717Z,100504.38
2023-04-19T13:32:51.886Z,100505.64
2023-04-19T13:35:19.218Z,100505.19
2023-04-19T13:37:47.238Z,100502.81
2023-04-19T13:40:19.404Z,100512.02
2023-04-19T13:42:47.179Z,100511.41
2023-04-19T13:45:14.575Z,100511.23
2023-04-19T13:47:41.660Z,100511.59
2023-04-19T13:50:09.111Z,100509.98
2023-04-19T13:52:36.396Z,100508.88
2023-04-19T13:55:03.572Z,100508.17
2023-04-19T13:57:30.833Z,100510.46
2023-04-19T13:59:59.351Z,100510.01
2023-04-19T14:02:26.420Z,100506.32
2023-04-19T14:04:59.268Z,100510.82
2023-04-19T14:07:28.632Z,100506.23
2023-04-19T14:09:58.461Z,100512.17
2023-04-19T14:12:26.253Z,100507.92
2023-04-19T14:14:53.498Z,100505.98
2023-04-19T14:17:20.448Z,100505.45
2023-04-19T14:19:47.600Z,100503.45
2023-04-19T14:22:16.195Z,100505.46
2023-04-19T14:24:43.341Z,100503.16
2023-04-19T14:27:11.910Z,100493.38
2023-04-19T14:29:39.403Z,100504.34
2023-04-19T14:32:21.474Z,100501.67
2023-04-19T14:34:51.060Z,100506.41
2023-04-19T14:37:18.597Z,100506.34
2023-04-19T14:39:45.828Z,100504.47
2023-04-19T14:42:13.167Z,100498.48
2023-04-19T14:44:40.396Z,100498.05
2023-04-19T14:47:07.587Z,100492.74
2023-04-19T14:49:34.805Z,100494.13
2023-04-19T14:52:03.292Z,100493.70
2023-04-19T14:54:30.329Z,100495.39
2023-04-19T14:56:57.417Z,100490.23
2023-04-19T14:59:24.305Z,100491.46
2023-04-19T15:01:51.204Z,100488.66
2023-04-19T15:04:18.218Z,100487.35
2023-04-19T15:06:45.607Z,100491.13
2023-04-19T15:09:12.536Z,100501.11
2023-04-19T15:11:39.542Z,100492.77
2023-04-19T15:14:06.533Z,100500.55
2023-04-19T15:16:33.815Z,100495.93
2023-04-19T15:19:01.857Z,100502.41
2023-04-19T15:21:28.633Z,100505.11
2023-04-19T15:23:55.498Z,100498.17
2023-04-19T15:26:25.103Z,100497.48
2023-04-19T15:28:56.941Z,100493.83
2023-04-19T15:31:24.463Z,100492.21
2023-04-19T15:33:51.920Z,100495.22
2023-04-19T15:36:22.475Z,100492.36
2023-04-19T15:38:49.566Z,100493.36
2023-04-19T15:41:16.947Z,100495.80
2023-04-19T15:43:43.907Z,100493.21
2023-04-19T15:46:13.103Z,100495.31
2023-04-19T15:48:40.681Z,100492.20
2023-04-19T15:51:08.797Z,100494.58
2023-04-19T15:56:43.487Z,100496.89
2023-04-19T15:59:11.428Z,100496.21
2023-04-19T16:01:39.213Z,100494.77
2023-04-19T16:04:06.562Z,100497.33
2023-04-19T16:06:34.459Z,100496.14
2023-04-19T16:09:01.501Z,100492.48
2023-04-19T16:11:29.207Z,100487.96
2023-04-19T16:13:58.531Z,100487.63
2023-04-19T16:16:27.050Z,100488.94
2023-04-19T16:18:54.042Z,100484.16
2023-04-19T16:21:21.145Z,100480.71
2023-04-19T16:23:52.896Z,100481.21
2023-04-19T16:26:21.986Z,100479.98
2023-04-19T16:28:52.418Z,100482.29
2023-04-19T16:31:19.605Z,100480.55
2023-04-19T16:33:48.047Z,100484.86
2023-04-19T16:36:15.345Z,100481.05
2023-04-19T16:38:42.337Z,100487.33
2023-04-19T16:41:11.908Z,100485.63
2023-04-19T16:43:39.202Z,100489.73
2023-04-19T16:46:06.883Z,100485.02
2023-04-19T16:48:47.892Z,100480.35
2023-04-19T16:51:15.356Z,100488.38
2023-04-19T16:53:49.631Z,100488.02
2023-04-19T16:56:19.109Z,100484.36
2023-04-19T16:58:47.337Z,100490.63
2023-04-19T17:01:14.820Z,100492.20
2023-04-19T17:03:42.251Z,100497.52
2023-04-19T17:06:20.814Z,100496.59
2023-04-19T17:08:51.592Z,100494.77
2023-04-19T17:11:18.873Z,100491.36
2023-04-19T17:13:45.664Z,100495.42
2023-04-19T17:16:13.532Z,100497.30
2023-04-19T17:18:44.831Z,100496.59
2023-04-19T17:21:16.360Z,100495.52
2023-04-19T17:23:44.939Z,100497.31
2023-04-19T17:26:13.629Z,100494.86
2023-04-19T17:28:42.100Z,100493.89
2023-04-19T17:31:09.363Z,100497.27
2023-04-19T17:33:37.586Z,100501.31
2023-04-19T17:36:06.446Z,100503.41
2023-04-19T17:38:34.594Z,100504.46
2023-04-19T17:41:03.214Z,100506.52
2023-04-19T17:49:02.513Z,100512.31
2023-04-19T17:51:33.994Z,100513.02
2023-04-19T17:54:06.182Z,100511.84
2023-04-19T17:57:21.940Z,100511.55
2023-04-19T18:04:34.541Z,100507.45
2023-04-19T18:07:03.163Z,100504.79
2023-04-19T18:09:30.097Z,100505.27
2023-04-19T18:11:57.550Z,100504.81
2023-04-19T18:14:32.451Z,100504.66
2023-04-19T18:17:01.453Z,100506.52
2023-04-19T18:22:59.472Z,100504.16
2023-04-19T18:26:15.841Z,100504.75
2023-04-19T18:29:03.620Z,100499.77
2023-04-19T18:31:30.699Z,100492.19
2023-04-19T18:33:57.598Z,100490.27
2023-04-19T18:36:24.602Z,100487.36
2023-04-19T18:38:51.617Z,100482.93
2023-04-19T18:41:18.736Z,100479.71
2023-04-19T18:44:00.716Z,100480.81
2023-04-19T18:46:33.629Z,100473.02
2023-04-19T18:49:00.805Z,100475.38
2023-04-19T18:51:28.260Z,100477.52
2023-04-19T18:53:57.560Z,100472.08
2023-04-19T18:56:52.165Z,100469.44
2023-04-19T18:59:13.779Z,100467.31
2023-04-19T19:01:41.601Z,100465.94
2023-04-19T19:04:37.401Z,100461.05
2023-04-19T19:07:07.844Z,100458.19
2023-04-19T19:12:29.311Z,100452.83
2023-04-19T19:14:56.517Z,100453.81
2023-04-19T19:17:27.827Z,100454.80
2023-04-19T19:19:57.479Z,100449.74
2023-04-19T19:22:28.339Z,100447.14
2023-04-19T19:24:56.860Z,100440.98
2023-04-19T19:27:23.998Z,100443.36
2023-04-19T19:29:53.809Z,100439.49
2023-04-19T19:32:25.112Z,100436.49
2023-04-19T19:35:09.916Z,100433.42
2023-04-19T19:37:37.832Z,100428.88
2023-04-19T19:40:11.305Z,100422.17
2023-04-19T19:42:48.420Z,100422.23
2023-04-19T19:45:17.607Z,100418.10
2023-04-19T19:47:49.296Z,100422.13
2023-04-19T19:52:55.050Z,100407.14
2023-04-19T19:55:23.141Z,100403.04
2023-04-19T20:00:44.008Z,100401.13
2023-04-19T20:03:12.127Z,100392.41
2023-04-19T20:05:39.894Z,100394.41
2023-04-19T20:08:11.594Z,100391.20
2023-04-19T20:10:40.936Z,100392.50
2023-04-19T20:13:08.411Z,100386.70
2023-04-19T20:15:35.991Z,100384.91
2023-04-19T20:18:03.810Z,100379.42
2023-04-19T20:20:31.128Z,100383.39
2023-04-19T20:22:59.041Z,100384.86
2023-04-19T20:25:26.263Z,100384.36
2023-04-19T20:27:54.464Z,100381.89
2023-04-19T20:30:21.353Z,100381.21
2023-04-19T20:32:49.544Z,100377.48
2023-04-19T20:35:18.338Z,100376.59
2023-04-19T20:37:45.934Z,100372.19
2023-04-19T20:40:14.536Z,100375.47
2023-04-19T20:42:43.685Z,100378.52
2023-04-19T20:45:10.588Z,100374.43
2023-04-19T20:47:38.225Z,100369.52
2023-04-19T20:50:06.257Z,100365.50
2023-04-19T20:52:34.323Z,100359.16
2023-04-19T20:55:01.241Z,100354.15
2023-04-19T20:57:28.238Z,100350.36
2023-04-19T20:59:55.229Z,100351.21
2023-04-19T21:02:22.088Z,100347.41
2023-04-19T21:04:48.906Z,100340.64
2023-04-19T21:07:15.746Z,100339.86
2023-04-19T21:09:43.061Z,100339.65
2023-04-19T21:12:10.100Z,100337.89
2023-04-19T21:14:36.989Z,100340.30
2023-04-19T21:17:03.891Z,100337.20
2023-04-19T21:19:30.981Z,100334.96
2023-04-19T21:21:58.275Z,100329.34
2023-04-19T21:24:25.721Z,100329.17
2023-04-19T21:26:52.566Z,100330.38
2023-04-19T21:29:20.008Z,100332.21
2023-04-19T21:31:47.079Z,100329.95
2023-04-19T21:34:13.923Z,100332.34
2023-04-19T21:36:40.791Z,100327.41
2023-04-19T21:39:07.854Z,100327.55
2023-04-19T21:41:37.328Z,100322.30
2023-04-19T21:44:04.266Z,100315.93
2023-04-19T21:46:31.615Z,100313.65
2023-04-19T21:48:58.530Z,100309.55
2023-04-19T21:51:25.354Z,100317.23
2023-04-19T21:53:52.255Z,100311.45
2023-04-19T21:56:19.205Z,100308.75
2023-04-19T21:58:47.029Z,100299.29
2023-04-19T22:01:13.983Z,100301.27
2023-04-19T22:03:41.264Z,100294.11
2023-04-19T22:06:08.923Z,100294.55
2023-04-19T22:08:35.819Z,100303.50
2023-04-19T22:11:02.996Z,100297.07
2023-04-19T22:13:32.729Z,100292.02
2023-04-19T22:16:01.647Z,100286.48
2023-04-19T22:18:28.799Z,100282.58
2023-04-19T22:20:55.604Z,100273.30
2023-04-19T22:23:23.326Z,100266.79
2023-04-19T22:25:50.306Z,100258.94
2023-04-19T22:28:17.176Z,100256.09
2023-04-19T22:30:45.045Z,100253.70
2023-04-19T22:33:12.028Z,100252.53
2023-04-19T22:35:38.941Z,100252.75
2023-04-19T22:38:05.780Z,100260.76
2023-04-19T22:40:32.646Z,100270.31
2023-04-19T22:42:59.424Z,100270.66
2023-04-19T22:45:26.252Z,100264.31
2023-04-19T22:47:53.191Z,100265.23
2023-04-19T22:50:21.737Z,100267.34
2023-04-19T22:52:49.349Z,100262.52
2023-04-19T22:55:19.316Z,100254.09
2023-04-19T22:57:46.185Z,100240.56
2023-04-19T23:00:14.225Z,100234.73
2023-04-19T23:02:41.728Z,100227.34
2023-04-19T23:05:08.839Z,100224.91
2023-04-19T23:07:38.886Z,100226.34
2023-04-19T23:10:06.312Z,100224.67
2023-04-19T23:12:33.936Z,100223.84
2023-04-19T23:15:01.576Z,100220.44
2023-04-19T23:17:28.689Z,100219.33
2023-04-19T23:19:55.544Z,100213.23
2023-04-19T23:22:22.408Z,100206.71
2023-04-19T23:24:49.357Z,100195.84
2023-04-19T23:27:16.500Z,100195.83
2023-04-19T23:29:43.626Z,100188.20
2023-04-19T23:32:10.621Z,100193.36
2023-04-19T23:34:37.467Z,100188.92
2023-04-19T23:37:04.293Z,100189.34
2023-04-19T23:39:31.725Z,100192.04
2023-04-19T23:41:58.668Z,100191.56
2023-04-19T23:44:26.399Z,100189.77
2023-04-19T23:46:53.813Z,100184.61
2023-04-19T23:49:20.878Z,100177.88
2023-04-19T23:51:49.939Z,100172.18
2023-04-19T23:54:20.663Z,100171.55
2023-04-19T23:56:48.902Z,100168.05
2023-04-19T23:59:15.976Z,100164.23
